sensor_id;sensor_type;location;lat;lon;timestamp;P1;durP1;ratioP1;P2;durP2;ratioP2
37609;SDS011;23457;51.966;8.230;2023-03-01T00:01:18;10.25;;;6.63;;
37609;SDS011;23457;51.966;8.230;2023-03-01T00:03:46;11.65;;;6.40;;
37609;SDS011;23457;51.966;8.230;2023-03-01T00:06:14;11.82;;;6.68;;
37609;SDS011;23457;51.966;8.230;2023-03-01T00:08:41;13.77;;;6.80;;
37609;SDS011;23457;51.966;8.230;2023-03-01T00:13:58;19.92;;;6.45;;
37609;SDS011;23457;51.966;8.230;2023-03-01T00:16:32;15.98;;;6.63;;
37609;SDS011;23457;51.966;8.230;2023-03-01T00:19:00;13.98;;;6.63;;
37609;SDS011;23457;51.966;8.230;2023-03-01T00:21:28;15.40;;;6.53;;
37609;SDS011;23457;51.966;8.230;2023-03-01T00:23:55;12.90;;;6.78;;
37609;SDS011;23457;51.966;8.230;2023-03-01T00:26:22;12.95;;;6.45;;
37609;SDS011;23457;51.966;8.230;2023-03-01T00:28:50;10.48;;;6.32;;
37609;SDS011;23457;51.966;8.230;2023-03-01T00:31:18;11.00;;;5.93;;
37609;SDS011;23457;51.966;8.230;2023-03-01T00:33:47;11.85;;;6.65;;
37609;SDS011;23457;51.966;8.230;2023-03-01T00:36:14;15.52;;;7.40;;
37609;SDS011;23457;51.966;8.230;2023-03-01T00:38:42;15.95;;;6.95;;
37609;SDS011;23457;51.966;8.230;2023-03-01T00:41:12;8.55;;;5.15;;
37609;SDS011;23457;51.966;8.230;2023-03-01T00:46:17;15.55;;;7.07;;
37609;SDS011;23457;51.966;8.230;2023-03-01T00:48:46;14.57;;;6.65;;
37609;SDS011;23457;51.966;8.230;2023-03-01T00:53:43;14.68;;;7.15;;
37609;SDS011;23457;51.966;8.230;2023-03-01T00:56:11;12.48;;;7.38;;
37609;SDS011;23457;51.966;8.230;2023-03-01T00:58:39;11.88;;;6.88;;
37609;SDS011;23457;51.966;8.230;2023-03-01T01:01:13;11.98;;;6.85;;
37609;SDS011;23457;51.966;8.230;2023-03-01T01:03:46;15.05;;;6.55;;
37609;SDS011;23457;51.966;8.230;2023-03-01T01:06:19;12.23;;;6.70;;
37609;SDS011;23457;51.966;8.230;2023-03-01T01:08:50;10.65;;;6.43;;
37609;SDS011;23457;51.966;8.230;2023-03-01T01:11:19;12.98;;;7.70;;
37609;SDS011;23457;51.966;8.230;2023-03-01T01:13:47;13.75;;;7.38;;
37609;SDS011;23457;51.966;8.230;2023-03-01T01:16:15;15.07;;;7.75;;
37609;SDS011;23457;51.966;8.230;2023-03-01T01:18:44;14.20;;;7.28;;
37609;SDS011;23457;51.966;8.230;2023-03-01T01:21:12;12.43;;;7.50;;
37609;SDS011;23457;51.966;8.230;2023-03-01T01:23:40;13.73;;;7.35;;
37609;SDS011;23457;51.966;8.230;2023-03-01T01:26:10;12.63;;;6.28;;
37609;SDS011;23457;51.966;8.230;2023-03-01T01:28:40;8.95;;;6.10;;
37609;SDS011;23457;51.966;8.230;2023-03-01T01:31:07;10.70;;;6.25;;
37609;SDS011;23457;51.966;8.230;2023-03-01T01:33:34;11.70;;;6.90;;
37609;SDS011;23457;51.966;8.230;2023-03-01T01:36:01;11.50;;;6.35;;
37609;SDS011;23457;51.966;8.230;2023-03-01T01:38:28;11.40;;;6.75;;
37609;SDS011;23457;51.966;8.230;2023-03-01T01:40:54;10.77;;;6.40;;
37609;SDS011;23457;51.966;8.230;2023-03-01T01:45:55;13.48;;;6.75;;
37609;SDS011;23457;51.966;8.230;2023-03-01T01:48:28;13.38;;;6.63;;
37609;SDS011;23457;51.966;8.230;2023-03-01T01:51:07;13.20;;;6.35;;
37609;SDS011;23457;51.966;8.230;2023-03-01T01:53:39;13.15;;;7.15;;
37609;SDS011;23457;51.966;8.230;2023-03-01T01:56:08;11.73;;;6.18;;
37609;SDS011;23457;51.966;8.230;2023-03-01T01:58:39;10.43;;;6.82;;
37609;SDS011;23457;51.966;8.230;2023-03-01T02:01:07;9.20;;;5.25;;
37609;SDS011;23457;51.966;8.230;2023-03-01T02:03:34;13.88;;;7.15;;
37609;SDS011;23457;51.966;8.230;2023-03-01T02:09:05;11.32;;;6.60;;
37609;SDS011;23457;51.966;8.230;2023-03-01T02:11:35;16.15;;;8.05;;
37609;SDS011;23457;51.966;8.230;2023-03-01T02:14:03;11.23;;;6.95;;
37609;SDS011;23457;51.966;8.230;2023-03-01T02:16:31;11.18;;;6.55;;
37609;SDS011;23457;51.966;8.230;2023-03-01T02:18:58;17.00;;;7.75;;
37609;SDS011;23457;51.966;8.230;2023-03-01T02:24:17;11.38;;;6.70;;
37609;SDS011;23457;51.966;8.230;2023-03-01T02:27:06;13.73;;;7.82;;
37609;SDS011;23457;51.966;8.230;2023-03-01T02:29:33;16.55;;;7.43;;
37609;SDS011;23457;51.966;8.230;2023-03-01T02:32:00;13.50;;;7.25;;
37609;SDS011;23457;51.966;8.230;2023-03-01T02:34:28;15.52;;;7.20;;
37609;SDS011;23457;51.966;8.230;2023-03-01T02:39:42;11.35;;;6.93;;
37609;SDS011;23457;51.966;8.230;2023-03-01T02:42:13;11.93;;;6.72;;
37609;SDS011;23457;51.966;8.230;2023-03-01T02:44:44;14.68;;;7.20;;
37609;SDS011;23457;51.966;8.230;2023-03-01T02:47:11;12.35;;;7.30;;
37609;SDS011;23457;51.966;8.230;2023-03-01T02:49:37;13.38;;;7.40;;
37609;SDS011;23457;51.966;8.230;2023-03-01T02:52:11;10.77;;;6.72;;
37609;SDS011;23457;51.966;8.230;2023-03-01T02:55:08;13.25;;;6.82;;
37609;SDS011;23457;51.966;8.230;2023-03-01T02:57:38;13.18;;;6.38;;
37609;SDS011;23457;51.966;8.230;2023-03-01T03:00:08;13.32;;;7.00;;
37609;SDS011;23457;51.966;8.230;2023-03-01T03:02:37;12.00;;;6.90;;
37609;SDS011;23457;51.966;8.230;2023-03-01T03:05:10;10.57;;;6.85;;
37609;SDS011;23457;51.966;8.230;2023-03-01T03:07:40;15.80;;;7.95;;
37609;SDS011;23457;51.966;8.230;2023-03-01T03:10:10;12.75;;;6.95;;
37609;SDS011;23457;51.966;8.230;2023-03-01T03:12:49;14.70;;;7.38;;
37609;SDS011;23457;51.966;8.230;2023-03-01T03:15:20;16.55;;;8.25;;
37609;SDS011;23457;51.966;8.230;2023-03-01T03:17:49;12.10;;;7.50;;
37609;SDS011;23457;51.966;8.230;2023-03-01T03:20:18;12.43;;;7.03;;
37609;SDS011;23457;51.966;8.230;2023-03-01T03:25:15;14.00;;;8.13;;
37609;SDS011;23457;51.966;8.230;2023-03-01T03:27:43;15.63;;;8.07;;
37609;SDS011;23457;51.966;8.230;2023-03-01T03:30:12;15.95;;;8.45;;
37609;SDS011;23457;51.966;8.230;2023-03-01T03:32:45;14.63;;;8.30;;
37609;SDS011;23457;51.966;8.230;2023-03-01T03:37:51;11.85;;;7.63;;
37609;SDS011;23457;51.966;8.230;2023-03-01T03:42:59;18.05;;;8.32;;
37609;SDS011;23457;51.966;8.230;2023-03-01T03:45:26;16.17;;;8.25;;
37609;SDS011;23457;51.966;8.230;2023-03-01T03:47:52;16.63;;;8.55;;
37609;SDS011;23457;51.966;8.230;2023-03-01T03:50:19;16.48;;;7.95;;
37609;SDS011;23457;51.966;8.230;2023-03-01T03:52:46;18.02;;;9.35;;
37609;SDS011;23457;51.966;8.230;2023-03-01T03:55:13;20.23;;;8.88;;
37609;SDS011;23457;51.966;8.230;2023-03-01T03:57:40;16.08;;;9.02;;
37609;SDS011;23457;51.966;8.230;2023-03-01T04:00:08;18.17;;;8.45;;
37609;SDS011;23457;51.966;8.230;2023-03-01T04:02:41;13.30;;;8.45;;
37609;SDS011;23457;51.966;8.230;2023-03-01T04:05:09;19.17;;;8.35;;
37609;SDS011;23457;51.966;8.230;2023-03-01T04:07:41;23.98;;;9.00;;
37609;SDS011;23457;51.966;8.230;2023-03-01T04:10:10;15.05;;;8.85;;
37609;SDS011;23457;51.966;8.230;2023-03-01T04:12:42;13.00;;;8.20;;
37609;SDS011;23457;51.966;8.230;2023-03-01T04:15:10;15.52;;;8.93;;
37609;SDS011;23457;51.966;8.230;2023-03-01T04:17:45;17.20;;;8.40;;
37609;SDS011;23457;51.966;8.230;2023-03-01T04:20:14;16.60;;;8.63;;
37609;SDS011;23457;51.966;8.230;2023-03-01T04:22:52;14.80;;;8.35;;
37609;SDS011;23457;51.966;8.230;2023-03-01T04:25:23;16.52;;;9.00;;
37609;SDS011;23457;51.966;8.230;2023-03-01T04:27:51;13.20;;;8.55;;
37609;SDS011;23457;51.966;8.230;2023-03-01T04:30:18;14.98;;;9.07;;
37609;SDS011;23457;51.966;8.230;2023-03-01T04:32:44;14.23;;;8.32;;
37609;SDS011;23457;51.966;8.230;2023-03-01T04:35:11;15.07;;;7.80;;
37609;SDS011;23457;51.966;8.230;2023-03-01T04:37:38;14.75;;;8.15;;
37609;SDS011;23457;51.966;8.230;2023-03-01T04:40:11;14.02;;;8.27;;
37609;SDS011;23457;51.966;8.230;2023-03-01T04:42:42;18.13;;;8.88;;
37609;SDS011;23457;51.966;8.230;2023-03-01T04:45:13;12.75;;;8.35;;
37609;SDS011;23457;51.966;8.230;2023-03-01T04:47:41;18.38;;;8.15;;
37609;SDS011;23457;51.966;8.230;2023-03-01T04:50:10;14.25;;;8.48;;
37609;SDS011;23457;51.966;8.230;2023-03-01T04:52:37;19.73;;;9.57;;
37609;SDS011;23457;51.966;8.230;2023-03-01T04:55:05;14.88;;;8.70;;
37609;SDS011;23457;51.966;8.230;2023-03-01T04:57:32;12.25;;;7.93;;
37609;SDS011;23457;51.966;8.230;2023-03-01T04:59:59;14.05;;;7.80;;
37609;SDS011;23457;51.966;8.230;2023-03-01T05:02:26;15.05;;;8.35;;
37609;SDS011;23457;51.966;8.230;2023-03-01T05:04:53;15.98;;;8.57;;
37609;SDS011;23457;51.966;8.230;2023-03-01T05:07:23;16.38;;;8.85;;
37609;SDS011;23457;51.966;8.230;2023-03-01T05:09:51;11.50;;;8.43;;
37609;SDS011;23457;51.966;8.230;2023-03-01T05:12:20;16.58;;;8.85;;
37609;SDS011;23457;51.966;8.230;2023-03-01T05:14:47;15.20;;;8.45;;
37609;SDS011;23457;51.966;8.230;2023-03-01T05:17:13;14.95;;;7.60;;
37609;SDS011;23457;51.966;8.230;2023-03-01T05:19:40;13.63;;;8.93;;
37609;SDS011;23457;51.966;8.230;2023-03-01T05:22:08;15.25;;;8.50;;
37609;SDS011;23457;51.966;8.230;2023-03-01T05:24:35;15.98;;;8.55;;
37609;SDS011;23457;51.966;8.230;2023-03-01T05:27:02;19.77;;;9.27;;
37609;SDS011;23457;51.966;8.230;2023-03-01T05:29:30;16.58;;;9.20;;
37609;SDS011;23457;51.966;8.230;2023-03-01T05:31:58;16.48;;;9.02;;
37609;SDS011;23457;51.966;8.230;2023-03-01T05:34:36;20.08;;;8.95;;
37609;SDS011;23457;51.966;8.230;2023-03-01T05:37:03;19.05;;;9.32;;
37609;SDS011;23457;51.966;8.230;2023-03-01T05:39:39;17.10;;;9.48;;
37609;SDS011;23457;51.966;8.230;2023-03-01T05:42:09;18.35;;;9.85;;
37609;SDS011;23457;51.966;8.230;2023-03-01T05:44:44;15.32;;;9.23;;
37609;SDS011;23457;51.966;8.230;2023-03-01T05:47:10;15.80;;;9.15;;
37609;SDS011;23457;51.966;8.230;2023-03-01T05:49:37;19.30;;;9.85;;
37609;SDS011;23457;51.966;8.230;2023-03-01T05:52:05;16.88;;;9.40;;
37609;SDS011;23457;51.966;8.230;2023-03-01T05:54:32;17.42;;;9.30;;
37609;SDS011;23457;51.966;8.230;2023-03-01T05:56:59;17.40;;;9.40;;
37609;SDS011;23457;51.966;8.230;2023-03-01T05:59:25;18.45;;;9.27;;
37609;SDS011;23457;51.966;8.230;2023-03-01T06:01:52;24.13;;;9.95;;
37609;SDS011;23457;51.966;8.230;2023-03-01T06:04:19;17.35;;;9.30;;
37609;SDS011;23457;51.966;8.230;2023-03-01T06:06:47;15.05;;;9.63;;
37609;SDS011;23457;51.966;8.230;2023-03-01T06:09:14;16.92;;;9.05;;
37609;SDS011;23457;51.966;8.230;2023-03-01T06:11:40;18.25;;;10.15;;
37609;SDS011;23457;51.966;8.230;2023-03-01T06:14:07;14.40;;;9.35;;
37609;SDS011;23457;51.966;8.230;2023-03-01T06:16:34;19.52;;;10.13;;
37609;SDS011;23457;51.966;8.230;2023-03-01T06:19:01;19.42;;;9.90;;
37609;SDS011;23457;51.966;8.230;2023-03-01T06:21:28;19.65;;;9.07;;
37609;SDS011;23457;51.966;8.230;2023-03-01T06:23:54;17.48;;;9.52;;
37609;SDS011;23457;51.966;8.230;2023-03-01T06:26:21;18.75;;;9.52;;
37609;SDS011;23457;51.966;8.230;2023-03-01T06:28:48;19.27;;;9.98;;
37609;SDS011;23457;51.966;8.230;2023-03-01T06:31:14;17.80;;;10.68;;
37609;SDS011;23457;51.966;8.230;2023-03-01T06:33:41;20.70;;;10.25;;
37609;SDS011;23457;51.966;8.230;2023-03-01T06:36:08;20.70;;;10.73;;
37609;SDS011;23457;51.966;8.230;2023-03-01T06:38:36;21.65;;;10.82;;
37609;SDS011;23457;51.966;8.230;2023-03-01T06:41:03;34.50;;;15.35;;
37609;SDS011;23457;51.966;8.230;2023-03-01T06:43:30;43.58;;;18.42;;
37609;SDS011;23457;51.966;8.230;2023-03-01T06:45:57;43.22;;;18.83;;
37609;SDS011;23457;51.966;8.230;2023-03-01T06:48:24;32.72;;;15.93;;
37609;SDS011;23457;51.966;8.230;2023-03-01T06:50:51;33.42;;;16.00;;
37609;SDS011;23457;51.966;8.230;2023-03-01T06:53:17;30.48;;;14.38;;
37609;SDS011;23457;51.966;8.230;2023-03-01T06:55:44;22.60;;;12.65;;
37609;SDS011;23457;51.966;8.230;2023-03-01T06:58:11;20.38;;;11.13;;
37609;SDS011;23457;51.966;8.230;2023-03-01T07:00:38;22.77;;;11.85;;
37609;SDS011;23457;51.966;8.230;2023-03-01T07:03:07;20.40;;;10.07;;
37609;SDS011;23457;51.966;8.230;2023-03-01T07:05:35;22.15;;;9.70;;
37609;SDS011;23457;51.966;8.230;2023-03-01T07:08:01;18.25;;;9.25;;
37609;SDS011;23457;51.966;8.230;2023-03-01T07:10:28;16.83;;;8.95;;
37609;SDS011;23457;51.966;8.230;2023-03-01T07:12:56;19.63;;;9.75;;
37609;SDS011;23457;51.966;8.230;2023-03-01T07:15:24;21.13;;;9.30;;
37609;SDS011;23457;51.966;8.230;2023-03-01T07:17:52;21.83;;;10.85;;
37609;SDS011;23457;51.966;8.230;2023-03-01T07:20:19;19.15;;;9.88;;
37609;SDS011;23457;51.966;8.230;2023-03-01T07:22:51;18.30;;;9.65;;
37609;SDS011;23457;51.966;8.230;2023-03-01T07:25:18;22.63;;;9.80;;
37609;SDS011;23457;51.966;8.230;2023-03-01T07:27:48;20.45;;;9.93;;
37609;SDS011;23457;51.966;8.230;2023-03-01T07:30:16;15.93;;;9.02;;
37609;SDS011;23457;51.966;8.230;2023-03-01T07:32:44;16.98;;;8.95;;
37609;SDS011;23457;51.966;8.230;2023-03-01T07:35:11;18.20;;;9.02;;
37609;SDS011;23457;51.966;8.230;2023-03-01T07:37:38;14.43;;;8.85;;
37609;SDS011;23457;51.966;8.230;2023-03-01T07:40:05;14.30;;;8.32;;
37609;SDS011;23457;51.966;8.230;2023-03-01T07:42:33;17.77;;;9.05;;
37609;SDS011;23457;51.966;8.230;2023-03-01T07:45:00;19.33;;;9.38;;
37609;SDS011;23457;51.966;8.230;2023-03-01T07:47:27;24.02;;;9.13;;
37609;SDS011;23457;51.966;8.230;2023-03-01T07:49:53;16.00;;;9.05;;
37609;SDS011;23457;51.966;8.230;2023-03-01T07:52:20;16.40;;;8.32;;
37609;SDS011;23457;51.966;8.230;2023-03-01T07:54:47;15.50;;;8.65;;
37609;SDS011;23457;51.966;8.230;2023-03-01T07:57:14;17.27;;;9.63;;
37609;SDS011;23457;51.966;8.230;2023-03-01T07:59:40;14.27;;;8.32;;
37609;SDS011;23457;51.966;8.230;2023-03-01T08:02:08;18.23;;;8.57;;
37609;SDS011;23457;51.966;8.230;2023-03-01T08:04:36;19.63;;;8.50;;
37609;SDS011;23457;51.966;8.230;2023-03-01T08:07:04;22.50;;;7.88;;
37609;SDS011;23457;51.966;8.230;2023-03-01T08:09:33;14.30;;;7.22;;
37609;SDS011;23457;51.966;8.230;2023-03-01T08:12:01;13.38;;;7.75;;
37609;SDS011;23457;51.966;8.230;2023-03-01T08:14:27;15.43;;;8.38;;
37609;SDS011;23457;51.966;8.230;2023-03-01T08:16:54;15.93;;;8.13;;
37609;SDS011;23457;51.966;8.230;2023-03-01T08:19:21;21.55;;;7.72;;
37609;SDS011;23457;51.966;8.230;2023-03-01T08:21:48;16.67;;;7.95;;
37609;SDS011;23457;51.966;8.230;2023-03-01T08:24:15;15.20;;;8.27;;
37609;SDS011;23457;51.966;8.230;2023-03-01T08:26:41;15.13;;;8.18;;
37609;SDS011;23457;51.966;8.230;2023-03-01T08:29:08;17.30;;;8.43;;
37609;SDS011;23457;51.966;8.230;2023-03-01T08:31:36;14.57;;;8.02;;
37609;SDS011;23457;51.966;8.230;2023-03-01T08:34:08;17.40;;;8.93;;
37609;SDS011;23457;51.966;8.230;2023-03-01T08:36:39;16.92;;;9.02;;
37609;SDS011;23457;51.966;8.230;2023-03-01T08:39:09;21.80;;;8.90;;
37609;SDS011;23457;51.966;8.230;2023-03-01T08:41:37;17.13;;;8.45;;
37609;SDS011;23457;51.966;8.230;2023-03-01T08:44:04;14.30;;;9.55;;
37609;SDS011;23457;51.966;8.230;2023-03-01T08:46:36;18.30;;;9.10;;
37609;SDS011;23457;51.966;8.230;2023-03-01T08:49:05;19.20;;;8.88;;
37609;SDS011;23457;51.966;8.230;2023-03-01T08:51:38;15.23;;;8.52;;
37609;SDS011;23457;51.966;8.230;2023-03-01T08:54:15;18.13;;;8.43;;
37609;SDS011;23457;51.966;8.230;2023-03-01T08:56:44;17.92;;;8.75;;
37609;SDS011;23457;51.966;8.230;2023-03-01T08:59:12;14.65;;;9.43;;
37609;SDS011;23457;51.966;8.230;2023-03-01T09:01:39;16.85;;;9.38;;
37609;SDS011;23457;51.966;8.230;2023-03-01T09:04:09;18.20;;;9.25;;
37609;SDS011;23457;51.966;8.230;2023-03-01T09:06:40;20.42;;;8.00;;
37609;SDS011;23457;51.966;8.230;2023-03-01T09:09:12;18.33;;;8.35;;
37609;SDS011;23457;51.966;8.230;2023-03-01T09:11:44;17.58;;;7.93;;
37609;SDS011;23457;51.966;8.230;2023-03-01T09:14:16;19.10;;;9.82;;
37609;SDS011;23457;51.966;8.230;2023-03-01T09:16:43;18.95;;;8.63;;
37609;SDS011;23457;51.966;8.230;2023-03-01T09:19:10;15.60;;;9.05;;
37609;SDS011;23457;51.966;8.230;2023-03-01T09:21:37;18.55;;;9.27;;
37609;SDS011;23457;51.966;8.230;2023-03-01T09:24:13;14.20;;;7.60;;
37609;SDS011;23457;51.966;8.230;2023-03-01T09:26:41;15.50;;;8.40;;
37609;SDS011;23457;51.966;8.230;2023-03-01T09:29:08;16.35;;;8.15;;
37609;SDS011;23457;51.966;8.230;2023-03-01T09:31:36;16.23;;;8.30;;
37609;SDS011;23457;51.966;8.230;2023-03-01T09:34:03;17.92;;;9.13;;
37609;SDS011;23457;51.966;8.230;2023-03-01T09:36:30;13.23;;;7.60;;
37609;SDS011;23457;51.966;8.230;2023-03-01T09:38:57;15.38;;;8.02;;
37609;SDS011;23457;51.966;8.230;2023-03-01T09:41:36;12.20;;;6.95;;
37609;SDS011;23457;51.966;8.230;2023-03-01T09:44:13;13.18;;;7.00;;
37609;SDS011;23457;51.966;8.230;2023-03-01T09:46:43;15.18;;;7.47;;
37609;SDS011;23457;51.966;8.230;2023-03-01T09:49:15;13.02;;;7.75;;
37609;SDS011;23457;51.966;8.230;2023-03-01T09:54:33;12.68;;;7.43;;
37609;SDS011;23457;51.966;8.230;2023-03-01T09:57:10;15.00;;;7.63;;
37609;SDS011;23457;51.966;8.230;2023-03-01T09:59:45;16.25;;;8.63;;
37609;SDS011;23457;51.966;8.230;2023-03-01T10:02:39;16.65;;;8.90;;
37609;SDS011;23457;51.966;8.230;2023-03-01T10:06:13;16.45;;;8.40;;
37609;SDS011;23457;51.966;8.230;2023-03-01T10:11:19;14.23;;;8.02;;
37609;SDS011;23457;51.966;8.230;2023-03-01T10:16:21;16.30;;;8.00;;
37609;SDS011;23457;51.966;8.230;2023-03-01T10:18:56;13.80;;;7.47;;
37609;SDS011;23457;51.966;8.230;2023-03-01T10:21:27;18.20;;;8.13;;
37609;SDS011;23457;51.966;8.230;2023-03-01T10:24:08;18.13;;;8.48;;
37609;SDS011;23457;51.966;8.230;2023-03-01T10:26:40;13.80;;;7.40;;
37609;SDS011;23457;51.966;8.230;2023-03-01T10:29:12;13.00;;;7.18;;
37609;SDS011;23457;51.966;8.230;2023-03-01T10:34:20;13.43;;;7.07;;
37609;SDS011;23457;51.966;8.230;2023-03-01T10:36:57;16.45;;;7.15;;
37609;SDS011;23457;51.966;8.230;2023-03-01T10:39:27;12.45;;;7.05;;
37609;SDS011;23457;51.966;8.230;2023-03-01T10:42:01;11.75;;;7.05;;
37609;SDS011;23457;51.966;8.230;2023-03-01T10:44:37;13.27;;;7.47;;
37609;SDS011;23457;51.966;8.230;2023-03-01T10:47:05;14.60;;;6.72;;
37609;SDS011;23457;51.966;8.230;2023-03-01T10:49:38;18.15;;;7.45;;
37609;SDS011;23457;51.966;8.230;2023-03-01T10:52:17;12.10;;;6.50;;
37609;SDS011;23457;51.966;8.230;2023-03-01T10:55:03;14.77;;;6.60;;
37609;SDS011;23457;51.966;8.230;2023-03-01T10:57:49;14.52;;;6.65;;
37609;SDS011;23457;51.966;8.230;2023-03-01T11:00:22;14.55;;;7.70;;
37609;SDS011;23457;51.966;8.230;2023-03-01T11:05:26;12.18;;;6.40;;
37609;SDS011;23457;51.966;8.230;2023-03-01T11:07:55;9.70;;;5.28;;
37609;SDS011;23457;51.966;8.230;2023-03-01T11:10:30;13.33;;;6.70;;
37609;SDS011;23457;51.966;8.230;2023-03-01T11:13:07;13.05;;;6.70;;
37609;SDS011;23457;51.966;8.230;2023-03-01T11:15:58;12.98;;;6.45;;
37609;SDS011;23457;51.966;8.230;2023-03-01T11:18:28;12.80;;;6.75;;
37609;SDS011;23457;51.966;8.230;2023-03-01T11:21:12;13.40;;;6.82;;
37609;SDS011;23457;51.966;8.230;2023-03-01T11:23:39;13.75;;;7.38;;
37609;SDS011;23457;51.966;8.230;2023-03-01T11:26:10;13.65;;;6.53;;
37609;SDS011;23457;51.966;8.230;2023-03-01T11:28:40;14.63;;;6.97;;
37609;SDS011;23457;51.966;8.230;2023-03-01T11:31:11;14.15;;;6.65;;
37609;SDS011;23457;51.966;8.230;2023-03-01T11:33:44;12.20;;;6.55;;
37609;SDS011;23457;51.966;8.230;2023-03-01T11:38:48;12.48;;;6.35;;
37609;SDS011;23457;51.966;8.230;2023-03-01T11:43:59;11.75;;;6.05;;
37609;SDS011;23457;51.966;8.230;2023-03-01T11:55:16;11.48;;;6.70;;
37609;SDS011;23457;51.966;8.230;2023-03-01T12:06:27;14.60;;;7.23;;
37609;SDS011;23457;51.966;8.230;2023-03-01T12:09:03;15.30;;;7.20;;
37609;SDS011;23457;51.966;8.230;2023-03-01T12:20:40;12.52;;;6.97;;
37609;SDS011;23457;51.966;8.230;2023-03-01T12:40:21;11.15;;;6.45;;
37609;SDS011;23457;51.966;8.230;2023-03-01T12:43:10;11.15;;;5.60;;
37609;SDS011;23457;51.966;8.230;2023-03-01T12:46:00;9.13;;;5.30;;
37609;SDS011;23457;51.966;8.230;2023-03-01T12:48:43;14.25;;;6.20;;
37609;SDS011;23457;51.966;8.230;2023-03-01T12:51:31;12.43;;;5.80;;
37609;SDS011;23457;51.966;8.230;2023-03-01T12:54:11;11.18;;;5.82;;
37609;SDS011;23457;51.966;8.230;2023-03-01T12:56:42;14.88;;;7.22;;
37609;SDS011;23457;51.966;8.230;2023-03-01T13:02:23;10.40;;;4.97;;
37609;SDS011;23457;51.966;8.230;2023-03-01T13:07:52;10.65;;;5.68;;
37609;SDS011;23457;51.966;8.230;2023-03-01T13:13:14;8.70;;;4.93;;
37609;SDS011;23457;51.966;8.230;2023-03-01T13:15:54;9.70;;;4.88;;
37609;SDS011;23457;51.966;8.230;2023-03-01T13:20:52;8.55;;;4.80;;
37609;SDS011;23457;51.966;8.230;2023-03-01T13:23:28;9.20;;;4.72;;
37609;SDS011;23457;51.966;8.230;2023-03-01T13:26:01;7.97;;;4.53;;
37609;SDS011;23457;51.966;8.230;2023-03-01T13:33:53;9.63;;;5.07;;
37609;SDS011;23457;51.966;8.230;2023-03-01T13:49:47;10.48;;;5.30;;
37609;SDS011;23457;51.966;8.230;2023-03-01T14:05:40;12.52;;;5.95;;
37609;SDS011;23457;51.966;8.230;2023-03-01T14:08:22;11.02;;;5.43;;
37609;SDS011;23457;51.966;8.230;2023-03-01T14:19:25;10.43;;;5.60;;
37609;SDS011;23457;51.966;8.230;2023-03-01T14:25:21;11.98;;;5.63;;
37609;SDS011;23457;51.966;8.230;2023-03-01T14:27:55;11.55;;;6.38;;
37609;SDS011;23457;51.966;8.230;2023-03-01T14:33:17;9.80;;;5.90;;
37609;SDS011;23457;51.966;8.230;2023-03-01T14:38:38;9.80;;;5.95;;
37609;SDS011;23457;51.966;8.230;2023-03-01T14:41:10;12.65;;;5.90;;
37609;SDS011;23457;51.966;8.230;2023-03-01T14:43:52;11.32;;;6.20;;
37609;SDS011;23457;51.966;8.230;2023-03-01T14:46:25;10.88;;;5.78;;
37609;SDS011;23457;51.966;8.230;2023-03-01T14:48:57;12.18;;;6.68;;
37609;SDS011;23457;51.966;8.230;2023-03-01T14:51:28;11.60;;;6.57;;
37609;SDS011;23457;51.966;8.230;2023-03-01T14:53:55;10.73;;;5.82;;
37609;SDS011;23457;51.966;8.230;2023-03-01T14:56:22;10.90;;;6.60;;
37609;SDS011;23457;51.966;8.230;2023-03-01T14:58:57;11.50;;;6.57;;
37609;SDS011;23457;51.966;8.230;2023-03-01T15:01:25;11.60;;;5.75;;
37609;SDS011;23457;51.966;8.230;2023-03-01T15:03:53;11.80;;;5.80;;
37609;SDS011;23457;51.966;8.230;2023-03-01T15:06:21;10.57;;;5.70;;
37609;SDS011;23457;51.966;8.230;2023-03-01T15:08:53;12.60;;;6.75;;
37609;SDS011;23457;51.966;8.230;2023-03-01T15:11:28;13.23;;;7.45;;
37609;SDS011;23457;51.966;8.230;2023-03-01T15:13:56;11.52;;;5.90;;
37609;SDS011;23457;51.966;8.230;2023-03-01T15:19:02;11.48;;;5.88;;
37609;SDS011;23457;51.966;8.230;2023-03-01T15:21:34;10.63;;;6.13;;
37609;SDS011;23457;51.966;8.230;2023-03-01T15:26:34;10.57;;;6.43;;
37609;SDS011;23457;51.966;8.230;2023-03-01T15:29:10;9.25;;;5.85;;
37609;SDS011;23457;51.966;8.230;2023-03-01T15:31:52;13.13;;;6.82;;
37609;SDS011;23457;51.966;8.230;2023-03-01T15:34:29;11.47;;;5.40;;
37609;SDS011;23457;51.966;8.230;2023-03-01T15:36:57;11.27;;;6.03;;
37609;SDS011;23457;51.966;8.230;2023-03-01T15:45:10;10.18;;;5.70;;
37609;SDS011;23457;51.966;8.230;2023-03-01T15:47:53;11.57;;;5.50;;
37609;SDS011;23457;51.966;8.230;2023-03-01T15:50:29;10.43;;;5.32;;
37609;SDS011;23457;51.966;8.230;2023-03-01T15:53:04;8.05;;;5.13;;
37609;SDS011;23457;51.966;8.230;2023-03-01T15:55:38;7.75;;;5.00;;
37609;SDS011;23457;51.966;8.230;2023-03-01T15:58:15;10.63;;;5.45;;
37609;SDS011;23457;51.966;8.230;2023-03-01T16:00:44;8.32;;;5.03;;
37609;SDS011;23457;51.966;8.230;2023-03-01T16:03:26;9.50;;;5.40;;
37609;SDS011;23457;51.966;8.230;2023-03-01T16:05:53;11.27;;;4.90;;
37609;SDS011;23457;51.966;8.230;2023-03-01T16:08:20;10.55;;;5.55;;
37609;SDS011;23457;51.966;8.230;2023-03-01T16:10:46;10.10;;;5.45;;
37609;SDS011;23457;51.966;8.230;2023-03-01T16:13:16;7.65;;;5.15;;
37609;SDS011;23457;51.966;8.230;2023-03-01T16:15:43;8.90;;;4.60;;
37609;SDS011;23457;51.966;8.230;2023-03-01T16:18:10;7.28;;;4.70;;
37609;SDS011;23457;51.966;8.230;2023-03-01T16:20:38;11.05;;;5.32;;
37609;SDS011;23457;51.966;8.230;2023-03-01T16:23:06;10.15;;;5.22;;
37609;SDS011;23457;51.966;8.230;2023-03-01T16:25:36;11.68;;;4.90;;
37609;SDS011;23457;51.966;8.230;2023-03-01T16:28:04;7.38;;;4.47;;
37609;SDS011;23457;51.966;8.230;2023-03-01T16:30:36;10.05;;;4.70;;
37609;SDS011;23457;51.966;8.230;2023-03-01T16:33:04;11.65;;;5.32;;
37609;SDS011;23457;51.966;8.230;2023-03-01T16:35:50;13.02;;;5.55;;
37609;SDS011;23457;51.966;8.230;2023-03-01T16:38:17;12.00;;;4.75;;
37609;SDS011;23457;51.966;8.230;2023-03-01T16:40:47;8.82;;;4.40;;
37609;SDS011;23457;51.966;8.230;2023-03-01T16:43:14;21.08;;;13.82;;
37609;SDS011;23457;51.966;8.230;2023-03-01T16:45:43;57.80;;;27.15;;
37609;SDS011;23457;51.966;8.230;2023-03-01T16:48:13;25.65;;;12.85;;
37609;SDS011;23457;51.966;8.230;2023-03-01T16:50:42;34.72;;;19.25;;
37609;SDS011;23457;51.966;8.230;2023-03-01T16:53:14;11.38;;;5.93;;
37609;SDS011;23457;51.966;8.230;2023-03-01T16:55:41;10.05;;;5.38;;
37609;SDS011;23457;51.966;8.230;2023-03-01T16:58:11;7.97;;;4.90;;
37609;SDS011;23457;51.966;8.230;2023-03-01T17:00:38;10.23;;;5.68;;
37609;SDS011;23457;51.966;8.230;2023-03-01T17:03:05;8.85;;;4.47;;
37609;SDS011;23457;51.966;8.230;2023-03-01T17:05:32;8.85;;;4.38;;
37609;SDS011;23457;51.966;8.230;2023-03-01T17:07:59;9.85;;;4.68;;
37609;SDS011;23457;51.966;8.230;2023-03-01T17:10:26;13.18;;;6.35;;
37609;SDS011;23457;51.966;8.230;2023-03-01T17:12:53;18.95;;;9.20;;
37609;SDS011;23457;51.966;8.230;2023-03-01T17:15:20;10.70;;;5.57;;
37609;SDS011;23457;51.966;8.230;2023-03-01T17:17:46;9.32;;;5.07;;
37609;SDS011;23457;51.966;8.230;2023-03-01T17:20:17;9.70;;;4.68;;
37609;SDS011;23457;51.966;8.230;2023-03-01T17:22:44;9.90;;;4.60;;
37609;SDS011;23457;51.966;8.230;2023-03-01T17:25:11;9.18;;;4.10;;
37609;SDS011;23457;51.966;8.230;2023-03-01T17:27:38;10.10;;;5.07;;
37609;SDS011;23457;51.966;8.230;2023-03-01T17:30:08;9.23;;;4.18;;
37609;SDS011;23457;51.966;8.230;2023-03-01T17:32:36;10.65;;;5.55;;
37609;SDS011;23457;51.966;8.230;2023-03-01T17:35:03;19.17;;;10.95;;